Time;durP1;ratioP1;P1;durP2;ratioP2;P2;SDS_P1;SDS_P2;PMS_P1;PMS_P2;Temp;Humidity;BMP_temperature;BMP_pressure;BME280_temperature;BME280_humidity;BME280_pressure;Samples;Min_cycle;Max_cycle;Signal;HPM_P1;HPM_P2
2024/01/30 00:01:15;;;;;;;12.10;4.63;;;8.20;99.90;;;;;;5008135;28;20033;-73
2024/01/30 00:03:41;;;;;;;7.63;4.15;;;8.20;99.90;;;;;;5011063;28;20030;-74
2024/01/30 00:06:07;;;;;;;15.25;4.90;;;8.30;99.90;;;;;;5027463;28;20121;-74
2024/01/30 00:08:33;;;;;;;12.18;5.28;;;8.20;99.90;;;;;;4999468;28;20569;-75
2024/01/30 00:10:59;;;;;;;13.10;4.82;;;8.20;99.90;;;;;;5009274;28;20124;-74
2024/01/30 00:13:25;;;;;;;17.65;5.72;;;8.20;99.90;;;;;;5002260;28;20053;-74
2024/01/30 00:15:50;;;;;;;11.75;4.85;;;8.20;99.90;;;;;;5008839;28;20038;-74
2024/01/30 00:18:16;;;;;;;13.93;5.20;;;8.30;99.90;;;;;;5007740;28;20379;-73
2024/01/30 00:20:42;;;;;;;11.77;5.72;;;8.30;99.90;;;;;;5009933;28;20030;-73
2024/01/30 00:23:08;;;;;;;10.55;4.47;;;8.30;99.90;;;;;;4994295;28;20026;-74
2024/01/30 00:25:34;;;;;;;15.93;5.55;;;8.30;99.90;;;;;;4992376;28;20118;-74
2024/01/30 00:27:59;;;;;;;9.80;5.18;;;8.30;99.90;;;;;;5009630;28;20073;-74
2024/01/30 00:30:25;;;;;;;9.25;4.88;;;8.40;99.90;;;;;;5003766;28;20029;-73
2024/01/30 00:32:50;;;;;;;10.82;4.75;;;8.40;99.90;;;;;;5012509;28;20089;-73
2024/01/30 00:35:16;;;;;;;9.05;4.30;;;8.40;99.90;;;;;;5022899;28;20083;-74
2024/01/30 00:37:41;;;;;;;11.65;5.22;;;8.40;99.90;;;;;;5024408;28;20049;-73
2024/01/30 00:40:10;;;;;;;11.38;4.30;;;8.40;99.90;;;;;;4998020;28;20042;-74
2024/01/30 00:42:35;;;;;;;12.88;5.15;;;8.40;99.90;;;;;;5023719;28;20030;-75
2024/01/30 00:45:01;;;;;;;14.35;4.55;;;8.30;99.90;;;;;;5010232;28;20469;-73
2024/01/30 00:47:27;;;;;;;11.85;4.13;;;8.30;99.90;;;;;;4994852;28;20064;-73
2024/01/30 00:49:52;;;;;;;10.02;4.10;;;8.40;99.90;;;;;;4995812;28;20061;-75
2024/01/30 00:52:18;;;;;;;9.80;3.78;;;8.30;99.90;;;;;;5017983;28;20046;-73
2024/01/30 00:54:43;;;;;;;10.95;4.25;;;8.30;99.90;;;;;;5001187;28;20041;-74
2024/01/30 00:57:09;;;;;;;10.57;4.78;;;8.30;99.90;;;;;;4996254;28;20152;-73
2024/01/30 00:59:35;;;;;;;10.13;5.03;;;8.30;99.90;;;;;;5023883;28;20061;-73
2024/01/30 01:02:00;;;;;;;8.52;4.43;;;8.30;99.90;;;;;;5027519;28;20092;-73
2024/01/30 01:04:26;;;;;;;9.38;4.35;;;8.30;99.90;;;;;;5002439;28;20021;-74
2024/01/30 01:06:52;;;;;;;13.70;4.43;;;8.30;99.90;;;;;;5017519;28;20050;-73
2024/01/30 01:09:17;;;;;;;9.02;4.35;;;8.30;99.90;;;;;;4999785;28;20524;-74
2024/01/30 01:11:43;;;;;;;11.80;5.35;;;8.20;99.90;;;;;;5016628;28;20042;-73
2024/01/30 01:14:09;;;;;;;9.13;4.30;;;8.20;99.90;;;;;;5020158;28;20038;-73
2024/01/30 01:16:35;;;;;;;10.88;4.68;;;8.20;99.90;;;;;;5020525;28;20034;-74
2024/01/30 01:19:01;;;;;;;8.63;4.07;;;8.10;99.90;;;;;;4993828;28;20133;-74
2024/01/30 01:21:26;;;;;;;7.28;3.75;;;8.10;99.90;;;;;;5012687;28;20456;-72
2024/01/30 01:23:52;;;;;;;14.77;4.53;;;8.10;99.90;;;;;;4995487;28;20109;-72
2024/01/30 01:26:17;;;;;;;9.45;4.90;;;8.10;99.90;;;;;;5017735;28;20042;-73
2024/01/30 01:28:43;;;;;;;10.20;4.00;;;8.20;99.90;;;;;;5012957;28;20034;-73
2024/01/30 01:31:08;;;;;;;11.05;4.85;;;8.10;99.90;;;;;;5016277;28;20069;-75
2024/01/30 01:33:35;;;;;;;12.55;5.15;;;8.20;99.90;;;;;;4994689;28;20045;-74
2024/01/30 01:36:04;;;;;;;10.63;4.53;;;8.20;99.90;;;;;;5016914;28;20038;-73
2024/01/30 01:38:29;;;;;;;11.10;4.35;;;8.10;99.90;;;;;;5009889;28;20037;-73
2024/01/30 01:40:55;;;;;;;9.73;4.38;;;8.10;99.90;;;;;;5013235;28;20049;-75
2024/01/30 01:43:21;;;;;;;13.52;3.97;;;8.10;99.90;;;;;;5011926;28;20048;-72
2024/01/30 01:45:46;;;;;;;8.82;4.10;;;8.10;99.90;;;;;;5003473;28;20077;-73
2024/01/30 01:48:12;;;;;;;10.95;4.68;;;8.10;99.90;;;;;;5010233;28;20129;-73
2024/01/30 01:50:39;;;;;;;7.60;4.03;;;8.10;99.90;;;;;;4996306;28;20441;-73
2024/01/30 01:53:07;;;;;;;9.07;4.18;;;8.10;99.90;;;;;;5001316;28;20034;-74
2024/01/30 01:55:34;;;;;;;10.90;4.38;;;8.10;99.90;;;;;;5017215;28;20705;-74
2024/01/30 01:58:00;;;;;;;9.07;4.72;;;8.00;99.90;;;;;;5004558;28;20081;-74
2024/01/30 02:00:26;;;;;;;10.55;4.43;;;8.00;99.90;;;;;;5017202;28;20069;-73
2024/01/30 02:02:54;;;;;;;9.45;4.20;;;8.00;99.90;;;;;;4993807;28;20107;-72
2024/01/30 02:05:20;;;;;;;8.90;4.43;;;8.00;99.90;;;;;;4992520;28;20064;-75
2024/01/30 02:07:46;;;;;;;6.75;3.65;;;8.00;99.90;;;;;;4992993;28;20111;-73
2024/01/30 02:10:12;;;;;;;12.18;4.53;;;8.00;99.90;;;;;;5005629;28;21263;-74
2024/01/30 02:12:38;;;;;;;7.85;3.70;;;8.00;99.90;;;;;;5004908;28;20033;-72
2024/01/30 02:15:04;;;;;;;7.35;3.90;;;8.10;99.90;;;;;;5017227;28;20375;-74
2024/01/30 02:17:30;;;;;;;15.93;4.30;;;8.10;99.90;;;;;;5011022;28;20034;-73
2024/01/30 02:19:56;;;;;;;12.80;4.50;;;8.10;99.90;;;;;;4992990;28;20033;-73
2024/01/30 02:22:23;;;;;;;13.55;4.68;;;8.20;99.90;;;;;;4995838;28;20092;-73
2024/01/30 02:24:48;;;;;;;8.65;4.30;;;8.20;99.90;;;;;;4994755;28;20060;-73
2024/01/30 02:27:14;;;;;;;7.07;4.13;;;8.10;99.90;;;;;;4991872;28;20502;-73
2024/01/30 02:29:40;;;;;;;7.90;3.85;;;8.20;99.90;;;;;;4993108;28;20044;-74
2024/01/30 02:32:06;;;;;;;7.72;3.88;;;8.20;99.90;;;;;;4998952;28;20030;-73
2024/01/30 02:34:31;;;;;;;11.15;4.47;;;8.20;99.90;;;;;;4993369;28;20030;-73
2024/01/30 02:36:57;;;;;;;8.07;3.90;;;8.20;99.90;;;;;;5002599;28;20083;-73
2024/01/30 02:39:23;;;;;;;11.80;4.50;;;8.20;99.90;;;;;;5012232;28;20051;-73
2024/01/30 02:41:48;;;;;;;9.93;4.05;;;8.10;99.90;;;;;;5004141;28;20087;-74
2024/01/30 02:44:14;;;;;;;8.15;3.58;;;8.10;99.90;;;;;;5011284;28;20033;-73
2024/01/30 02:46:39;;;;;;;8.18;4.28;;;8.10;99.90;;;;;;4996255;28;20131;-73
2024/01/30 02:49:05;;;;;;;9.30;4.10;;;8.10;99.90;;;;;;5007004;28;20099;-73
2024/01/30 02:51:30;;;;;;;7.97;3.67;;;8.10;99.90;;;;;;5005397;28;20030;-72
2024/01/30 02:53:56;;;;;;;8.70;4.38;;;8.10;99.90;;;;;;5001058;28;20026;-73
2024/01/30 02:56:22;;;;;;;8.07;4.47;;;8.10;99.90;;;;;;5011326;28;20493;-73
2024/01/30 02:58:47;;;;;;;10.40;4.90;;;8.10;99.90;;;;;;5010926;28;20048;-73
2024/01/30 03:01:13;;;;;;;7.32;3.80;;;8.10;99.90;;;;;;4999453;28;20537;-72
2024/01/30 03:03:40;;;;;;;9.45;4.00;;;8.10;99.90;;;;;;4992685;28;20137;-72
2024/01/30 03:06:07;;;;;;;7.78;3.65;;;8.10;99.90;;;;;;4999171;28;20036;-74
2024/01/30 03:08:32;;;;;;;11.80;4.15;;;8.00;99.90;;;;;;5017822;28;20038;-73
2024/01/30 03:10:58;;;;;;;10.60;4.22;;;8.10;99.90;;;;;;5019623;28;20064;-73
2024/01/30 03:13:24;;;;;;;9.30;3.88;;;8.10;99.90;;;;;;5029879;28;20033;-73
2024/01/30 03:15:50;;;;;;;7.55;3.65;;;8.10;99.90;;;;;;5002367;28;20041;-77
2024/01/30 03:18:16;;;;;;;7.25;3.55;;;8.10;99.90;;;;;;4995784;28;20041;-73
2024/01/30 03:20:41;;;;;;;13.57;5.88;;;8.10;99.90;;;;;;5012181;28;20036;-74
2024/01/30 03:23:07;;;;;;;7.38;3.75;;;8.10;99.90;;;;;;5019990;28;20397;-73
2024/01/30 03:25:32;;;;;;;7.53;4.00;;;8.10;99.90;;;;;;5011902;28;20401;-73
2024/01/30 03:27:58;;;;;;;8.23;3.88;;;8.10;99.90;;;;;;5004082;28;20046;-72
2024/01/30 03:30:23;;;;;;;11.43;4.57;;;8.20;99.90;;;;;;4995665;28;20037;-74
2024/01/30 03:32:50;;;;;;;7.80;4.22;;;8.20;99.90;;;;;;5004782;28;20041;-74
2024/01/30 03:35:15;;;;;;;7.13;3.78;;;8.10;99.90;;;;;;5001664;28;20040;-75
2024/01/30 03:37:41;;;;;;;10.52;4.07;;;8.20;99.90;;;;;;5008783;28;20120;-73
2024/01/30 03:40:07;;;;;;;6.65;3.38;;;8.20;99.90;;;;;;4998370;28;20030;-72
2024/01/30 03:42:32;;;;;;;11.27;4.57;;;8.20;99.90;;;;;;4991955;28;20042;-72
2024/01/30 03:44:58;;;;;;;8.10;3.83;;;8.10;99.90;;;;;;5018633;28;20080;-72
2024/01/30 03:47:24;;;;;;;11.27;4.40;;;8.10;99.90;;;;;;5029064;28;20040;-74
2024/01/30 03:49:49;;;;;;;9.73;3.80;;;8.10;99.90;;;;;;5010834;28;20133;-72
2024/01/30 03:52:15;;;;;;;8.02;4.15;;;8.10;99.90;;;;;;5008145;28;20044;-73
2024/01/30 03:54:40;;;;;;;11.05;4.75;;;8.10;99.90;;;;;;5002315;28;20033;-73
2024/01/30 03:57:06;;;;;;;8.90;4.05;;;8.10;99.90;;;;;;5003175;28;20555;-72
2024/01/30 03:59:31;;;;;;;9.65;4.05;;;8.20;99.90;;;;;;5005956;28;20033;-73
2024/01/30 04:01:57;;;;;;;8.65;4.40;;;8.20;99.90;;;;;;5010314;28;20049;-73
2024/01/30 04:04:23;;;;;;;8.85;4.07;;;8.20;99.90;;;;;;5010573;28;20071;-74
2024/01/30 04:06:48;;;;;;;10.88;4.53;;;8.20;99.90;;;;;;4991478;28;20030;-75
2024/01/30 04:09:14;;;;;;;10.70;4.07;;;8.20;99.90;;;;;;5008788;28;20030;-72
2024/01/30 04:11:41;;;;;;;9.18;3.92;;;8.30;99.90;;;;;;4991776;28;20539;-74
2024/01/30 04:14:08;;;;;;;8.57;3.38;;;8.30;99.90;;;;;;5000965;28;20116;-74
2024/01/30 04:16:34;;;;;;;8.30;3.72;;;8.30;99.90;;;;;;5014092;28;20032;-73
2024/01/30 04:18:59;;;;;;;11.07;4.70;;;8.30;99.90;;;;;;4989482;28;20478;-72
2024/01/30 04:21:25;;;;;;;8.30;3.47;;;8.30;99.90;;;;;;5022768;28;20029;-72
2024/01/30 04:23:53;;;;;;;10.25;3.60;;;8.30;99.90;;;;;;5018583;28;20037;-72
2024/01/30 04:26:19;;;;;;;9.55;3.50;;;8.30;99.90;;;;;;4990506;28;20037;-73
2024/01/30 04:28:45;;;;;;;9.57;3.75;;;8.30;99.90;;;;;;4992282;28;20033;-73
2024/01/30 04:31:11;;;;;;;10.55;3.88;;;8.30;99.90;;;;;;5009543;28;20386;-73
2024/01/30 04:33:36;;;;;;;9.35;3.97;;;8.30;99.90;;;;;;5022143;28;20037;-74
2024/01/30 04:36:03;;;;;;;9.30;3.55;;;8.30;99.90;;;;;;5016840;28;20486;-73
2024/01/30 04:38:28;;;;;;;8.30;4.13;;;8.30;99.90;;;;;;5016646;28;20034;-73
2024/01/30 04:40:54;;;;;;;10.60;4.35;;;8.30;99.90;;;;;;5008053;28;20512;-73
2024/01/30 04:43:19;;;;;;;8.23;4.05;;;8.30;99.90;;;;;;5006814;28;21772;-72
2024/01/30 04:45:45;;;;;;;9.77;4.00;;;8.30;99.90;;;;;;4998761;28;20481;-73
2024/01/30 04:48:11;;;;;;;7.10;3.45;;;8.40;99.90;;;;;;4992527;28;20054;-73
2024/01/30 04:50:36;;;;;;;7.95;4.13;;;8.30;99.90;;;;;;4993397;28;20025;-73
2024/01/30 04:53:02;;;;;;;7.72;3.50;;;8.40;99.90;;;;;;5002454;28;20555;-74
2024/01/30 04:55:27;;;;;;;12.15;3.72;;;8.40;99.90;;;;;;5013564;28;20034;-74
2024/01/30 04:57:53;;;;;;;11.02;4.18;;;8.40;99.90;;;;;;4999014;28;20038;-74
2024/01/30 05:00:19;;;;;;;13.00;5.00;;;8.40;99.90;;;;;;4990744;28;20041;-73
2024/01/30 05:02:44;;;;;;;9.68;4.03;;;8.40;99.90;;;;;;4993369;28;20037;-73
2024/01/30 05:05:10;;;;;;;10.75;3.67;;;8.40;99.90;;;;;;5000533;28;20572;-75
2024/01/30 05:07:37;;;;;;;7.75;3.50;;;8.50;99.90;;;;;;4993740;28;20139;-74
2024/01/30 05:10:03;;;;;;;8.52;4.07;;;8.50;99.90;;;;;;5025300;28;20493;-73
2024/01/30 05:12:29;;;;;;;7.60;3.47;;;8.50;99.90;;;;;;5010664;28;20393;-73
2024/01/30 05:14:54;;;;;;;9.43;3.90;;;8.50;99.90;;;;;;5017548;28;20044;-73
2024/01/30 05:17:20;;;;;;;8.00;3.83;;;8.40;99.90;;;;;;5006358;28;20045;-73
2024/01/30 05:19:45;;;;;;;8.30;4.28;;;8.50;99.90;;;;;;5015917;28;20123;-72
2024/01/30 05:22:15;;;;;;;8.52;3.15;;;8.50;99.90;;;;;;5011409;28;20084;-72
2024/01/30 05:24:41;;;;;;;8.07;3.58;;;8.50;99.90;;;;;;4994705;28;20036;-74
2024/01/30 05:27:06;;;;;;;9.05;4.32;;;8.50;99.90;;;;;;4993151;28;20033;-73
2024/01/30 05:29:32;;;;;;;8.73;3.97;;;8.50;99.90;;;;;;5002609;28;20092;-72
2024/01/30 05:31:57;;;;;;;8.40;2.90;;;8.50;99.90;;;;;;4999296;28;20037;-73
2024/01/30 05:34:23;;;;;;;9.48;4.10;;;8.60;99.90;;;;;;5019057;28;20093;-74
2024/01/30 05:36:48;;;;;;;9.75;4.25;;;8.50;99.90;;;;;;5011775;28;20096;-73
2024/01/30 05:39:14;;;;;;;9.43;4.28;;;8.60;99.90;;;;;;5003512;28;20033;-72
2024/01/30 05:41:39;;;;;;;7.05;3.45;;;8.60;99.90;;;;;;5026113;28;20052;-74
2024/01/30 05:44:05;;;;;;;8.23;3.60;;;8.60;99.90;;;;;;5010911;28;20030;-72
2024/01/30 05:46:30;;;;;;;9.93;3.95;;;8.70;99.90;;;;;;4994160;28;20029;-72
2024/01/30 05:48:56;;;;;;;8.20;3.67;;;8.60;99.90;;;;;;5014760;28;20040;-72
2024/01/30 05:51:22;;;;;;;11.68;3.72;;;8.60;99.90;;;;;;5003067;28;20037;-73
2024/01/30 05:53:47;;;;;;;11.57;3.38;;;8.70;99.90;;;;;;5015223;28;20528;-73
2024/01/30 05:56:13;;;;;;;7.75;3.17;;;8.70;99.90;;;;;;5017103;28;20037;-72
2024/01/30 05:58:38;;;;;;;8.15;3.60;;;8.70;99.90;;;;;;5021565;28;20394;-73
2024/01/30 06:01:08;;;;;;;9.40;3.22;;;8.70;99.90;;;;;;5017973;28;20393;-74
2024/01/30 06:03:34;;;;;;;7.00;3.53;;;8.70;99.90;;;;;;5020584;28;20034;-73
2024/01/30 06:05:59;;;;;;;6.57;3.55;;;8.70;99.90;;;;;;4995332;28;20041;-74
2024/01/30 06:08:25;;;;;;;6.80;3.08;;;8.80;99.90;;;;;;4998388;28;20080;-73
2024/01/30 06:10:50;;;;;;;7.97;3.40;;;8.80;99.90;;;;;;5001562;28;20033;-72
2024/01/30 06:13:16;;;;;;;7.55;3.58;;;8.80;99.90;;;;;;5013668;28;21486;-73
2024/01/30 06:15:41;;;;;;;7.97;3.42;;;8.80;99.90;;;;;;4994788;28;20048;-74
2024/01/30 06:18:07;;;;;;;11.60;3.00;;;8.80;99.90;;;;;;5014597;28;20033;-73
2024/01/30 06:20:32;;;;;;;8.00;3.65;;;8.80;99.90;;;;;;5013458;28;20030;-75
2024/01/30 06:22:58;;;;;;;7.57;3.63;;;8.80;99.90;;;;;;5012783;28;20030;-73
2024/01/30 06:25:23;;;;;;;10.43;3.85;;;8.80;99.90;;;;;;5024572;28;20095;-74
2024/01/30 06:27:49;;;;;;;7.35;3.42;;;8.90;99.90;;;;;;5013993;28;20026;-73
2024/01/30 06:30:15;;;;;;;8.80;3.72;;;8.90;99.90;;;;;;4993042;28;20482;-72
2024/01/30 06:32:40;;;;;;;6.18;3.10;;;8.90;99.90;;;;;;5017250;28;20060;-73
2024/01/30 06:35:06;;;;;;;8.07;3.40;;;8.90;99.90;;;;;;4995538;28;20049;-75
2024/01/30 06:37:32;;;;;;;7.45;4.13;;;8.90;99.90;;;;;;5012788;28;20030;-73
2024/01/30 06:39:57;;;;;;;6.05;3.15;;;8.90;99.90;;;;;;5019114;28;20034;-74
2024/01/30 06:42:23;;;;;;;9.98;3.30;;;9.00;99.90;;;;;;5023043;28;20037;-73
2024/01/30 06:44:48;;;;;;;10.40;4.32;;;8.90;99.90;;;;;;5025322;28;20045;-73
2024/01/30 06:47:14;;;;;;;6.57;3.22;;;8.90;99.90;;;;;;4993410;28;20034;-75
2024/01/30 06:49:41;;;;;;;6.78;3.17;;;9.00;99.90;;;;;;5020469;28;20073;-72
2024/01/30 06:52:07;;;;;;;7.97;3.88;;;9.00;99.90;;;;;;4993061;28;20034;-74
2024/01/30 06:54:33;;;;;;;9.20;3.67;;;9.00;99.90;;;;;;5015436;28;20104;-73
2024/01/30 06:56:59;;;;;;;11.77;3.00;;;9.00;99.90;;;;;;4998359;28;20077;-74
2024/01/30 06:59:25;;;;;;;7.68;3.28;;;9.00;99.90;;;;;;4997788;28;20436;-73
2024/01/30 07:01:50;;;;;;;9.23;3.65;;;9.00;99.90;;;;;;4999351;28;20074;-73
2024/01/30 07:04:16;;;;;;;6.35;2.88;;;9.00;99.90;;;;;;4998819;28;20053;-74
2024/01/30 07:06:42;;;;;;;12.52;3.50;;;9.10;99.90;;;;;;5000637;28;20037;-74
2024/01/30 07:09:08;;;;;;;6.85;3.60;;;9.20;99.90;;;;;;4996557;28;20041;-72
2024/01/30 07:11:34;;;;;;;12.00;4.50;;;9.20;99.90;;;;;;5002991;28;20058;-74
2024/01/30 07:13:59;;;;;;;9.60;3.42;;;9.20;99.90;;;;;;5008098;28;20058;-73
2024/01/30 07:16:25;;;;;;;7.50;3.00;;;9.20;99.90;;;;;;5018785;28;20030;-73
2024/01/30 07:18:51;;;;;;;10.27;3.38;;;9.20;99.90;;;;;;5012125;28;20482;-73
2024/01/30 07:21:17;;;;;;;7.78;3.42;;;9.20;99.90;;;;;;5014652;28;20389;-73
2024/01/30 07:26:16;;;;;;;6.53;3.35;;;9.20;99.90;;;;;;4971808;28;20046;-76
2024/01/30 07:28:41;;;;;;;6.75;3.08;;;9.20;99.90;;;;;;4951314;28;20046;-74
2024/01/30 07:31:07;;;;;;;6.68;2.97;;;9.20;99.90;;;;;;4952983;28;20170;-74
2024/01/30 07:33:32;;;;;;;10.30;3.63;;;9.30;99.90;;;;;;4963036;28;20049;-75
2024/01/30 07:35:58;;;;;;;9.93;3.83;;;9.30;99.90;;;;;;4948528;28;20391;-74
2024/01/30 07:38:23;;;;;;;8.02;4.25;;;9.30;99.90;;;;;;4938072;28;20031;-74
2024/01/30 07:40:49;;;;;;;5.95;3.47;;;9.30;99.90;;;;;;4934616;28;20125;-74
2024/01/30 07:43:15;;;;;;;19.95;3.85;;;9.30;99.90;;;;;;4942583;28;21057;-75
2024/01/30 07:45:40;;;;;;;10.20;3.70;;;9.30;99.90;;;;;;4946547;28;20466;-73
2024/01/30 07:48:06;;;;;;;9.50;3.67;;;9.40;99.90;;;;;;4929808;28;20038;-75
2024/01/30 07:50:32;;;;;;;7.45;3.13;;;9.40;99.90;;;;;;4952163;28;20057;-73
2024/01/30 07:52:59;;;;;;;10.70;3.38;;;9.40;99.90;;;;;;4929076;28;20039;-74
2024/01/30 07:55:28;;;;;;;8.45;3.30;;;9.40;99.90;;;;;;4944743;28;20039;-73
2024/01/30 07:57:54;;;;;;;11.45;3.60;;;9.50;99.90;;;;;;4939009;28;20181;-74
2024/01/30 08:00:21;;;;;;;9.85;2.90;;;9.50;99.90;;;;;;4945021;28;20036;-74
2024/01/30 08:02:54;;;;;;;6.35;2.85;;;9.50;99.90;;;;;;4938052;28;20043;-75
2024/01/30 08:05:22;;;;;;;6.72;3.20;;;9.50;99.90;;;;;;4949212;28;20905;-75
2024/01/30 08:07:48;;;;;;;10.65;3.42;;;9.50;99.90;;;;;;4937127;28;20035;-74
2024/01/30 08:10:14;;;;;;;11.45;3.33;;;9.50;99.90;;;;;;4956591;28;20043;-76
2024/01/30 08:12:39;;;;;;;9.35;3.17;;;9.60;99.90;;;;;;4945520;28;20032;-74
2024/01/30 08:15:05;;;;;;;10.00;2.80;;;9.60;99.90;;;;;;4940433;28;20039;-75
2024/01/30 08:17:31;;;;;;;9.07;3.25;;;9.60;99.90;;;;;;4929802;28;20039;-74
2024/01/30 08:19:57;;;;;;;8.73;3.10;;;9.70;99.90;;;;;;4928920;28;20396;-72
2024/01/30 08:22:22;;;;;;;6.63;3.40;;;9.70;99.90;;;;;;4949771;28;20528;-72
2024/01/30 08:24:48;;;;;;;15.25;4.50;;;9.80;99.90;;;;;;4948320;28;20067;-74
2024/01/30 08:27:13;;;;;;;8.20;3.20;;;9.80;99.90;;;;;;4932863;28;20054;-75
2024/01/30 08:29:39;;;;;;;18.50;3.47;;;9.90;99.90;;;;;;4947482;28;20028;-73
2024/01/30 08:32:06;;;;;;;9.13;3.30;;;9.90;99.90;;;;;;4934820;28;20042;-78
2024/01/30 08:34:32;;;;;;;11.63;3.30;;;10.00;99.90;;;;;;4955649;28;20028;-73
2024/01/30 08:36:57;;;;;;;10.05;3.10;;;10.00;99.90;;;;;;4936655;28;20038;-73
2024/01/30 08:39:23;;;;;;;7.85;2.90;;;10.00;99.90;;;;;;4957637;28;20038;-75
2024/01/30 08:41:48;;;;;;;6.03;2.85;;;10.00;99.90;;;;;;4936202;28;20047;-73
2024/01/30 08:44:14;;;;;;;9.68;3.53;;;10.00;99.90;;;;;;4951692;28;20027;-76
2024/01/30 08:46:39;;;;;;;8.95;3.63;;;10.10;99.90;;;;;;4954863;28;20035;-74
2024/01/30 08:49:05;;;;;;;8.20;2.95;;;10.20;99.90;;;;;;4935521;28;20175;-75
2024/01/30 08:51:31;;;;;;;13.13;3.72;;;10.20;99.90;;;;;;4950496;28;20487;-73
2024/01/30 08:53:56;;;;;;;8.07;3.10;;;10.20;99.90;;;;;;4958869;28;20505;-75
2024/01/30 08:56:22;;;;;;;12.07;3.08;;;10.30;99.90;;;;;;4957406;28;20039;-75
2024/01/30 08:58:48;;;;;;;16.05;4.15;;;10.20;99.90;;;;;;4939268;28;20156;-73
2024/01/30 09:01:14;;;;;;;9.00;3.47;;;10.30;99.90;;;;;;4959290;28;20053;-74
2024/01/30 09:03:41;;;;;;;9.43;3.63;;;10.30;99.90;;;;;;4951891;28;20387;-74
2024/01/30 09:06:10;;;;;;;9.38;3.67;;;10.30;99.90;;;;;;4938207;28;20395;-75
2024/01/30 09:08:35;;;;;;;8.82;3.22;;;10.30;99.90;;;;;;4935534;28;20145;-74
2024/01/30 09:11:01;;;;;;;7.60;2.92;;;10.30;99.90;;;;;;4958037;28;20082;-75
2024/01/30 09:13:26;;;;;;;9.63;3.30;;;10.40;99.90;;;;;;4953333;28;20035;-74
2024/01/30 09:15:52;;;;;;;18.67;3.88;;;10.40;99.90;;;;;;4953806;28;20043;-74
2024/01/30 09:18:18;;;;;;;10.70;3.40;;;10.40;99.90;;;;;;4936786;28;20864;-74
2024/01/30 09:20:47;;;;;;;7.60;3.15;;;10.40;99.90;;;;;;4944033;28;20106;-75
2024/01/30 09:23:12;;;;;;;11.07;3.17;;;10.40;99.90;;;;;;4951574;28;20407;-76
2024/01/30 09:25:38;;;;;;;7.97;3.28;;;10.40;99.90;;;;;;4953987;28;20042;-76
2024/01/30 09:28:04;;;;;;;7.20;3.13;;;10.50;99.90;;;;;;4956178;28;20058;-76
2024/01/30 09:30:30;;;;;;;19.25;3.30;;;10.50;99.90;;;;;;4956865;28;20054;-75
2024/01/30 09:32:55;;;;;;;8.35;3.20;;;10.60;99.90;;;;;;4950743;28;20039;-74
2024/01/30 09:35:21;;;;;;;11.80;3.28;;;10.60;99.90;;;;;;4942692;28;20057;-74
2024/01/30 09:37:46;;;;;;;9.70;3.00;;;10.60;99.90;;;;;;4953824;28;20569;-75
2024/01/30 09:40:12;;;;;;;11.68;4.05;;;10.60;99.90;;;;;;4956875;28;20570;-73
2024/01/30 09:42:39;;;;;;;11.45;3.17;;;10.70;99.90;;;;;;4954403;28;20071;-74
2024/01/30 09:45:05;;;;;;;10.35;3.40;;;10.70;99.90;;;;;;4941873;28;20121;-75
2024/01/30 09:47:43;;;;;;;14.82;5.10;;;10.80;99.90;;;;;;4937607;28;20057;-76
2024/01/30 09:50:10;;;;;;;7.18;3.03;;;10.90;99.90;;;;;;4952473;28;21051;-76
2024/01/30 09:52:36;;;;;;;10.15;2.85;;;10.90;99.90;;;;;;4936856;28;20035;-76
2024/01/30 09:55:03;;;;;;;7.72;2.63;;;11.00;99.90;;;;;;4930826;28;20039;-74
2024/01/30 09:57:28;;;;;;;8.85;3.17;;;11.00;99.90;;;;;;4949544;28;20082;-74
2024/01/30 09:59:54;;;;;;;8.35;3.13;;;11.10;99.90;;;;;;4935034;28;20082;-75
2024/01/30 10:02:20;;;;;;;10.13;3.80;;;11.20;99.90;;;;;;4948889;28;20076;-74
2024/01/30 10:04:50;;;;;;;8.68;3.40;;;11.30;99.90;;;;;;4946634;28;20079;-75
2024/01/30 10:07:16;;;;;;;12.35;3.90;;;11.40;99.90;;;;;;4943418;28;20053;-75
2024/01/30 10:09:42;;;;;;;9.30;3.00;;;11.40;99.90;;;;;;4956140;28;20840;-73
2024/01/30 10:12:09;;;;;;;9.30;2.83;;;11.40;99.90;;;;;;4931028;29;20123;-73
2024/01/30 10:14:41;;;;;;;6.00;3.35;;;11.40;99.90;;;;;;4950891;28;20038;-74
2024/01/30 10:17:11;;;;;;;8.63;3.08;;;11.50;99.90;;;;;;4949299;28;20035;-74
2024/01/30 10:19:41;;;;;;;10.40;3.05;;;11.50;99.90;;;;;;4933057;28;20054;-74
2024/01/30 10:22:06;;;;;;;11.07;3.00;;;11.50;99.90;;;;;;4927665;29;20463;-74
2024/01/30 10:24:33;;;;;;;8.63;3.35;;;11.60;99.90;;;;;;4925644;28;20111;-75
2024/01/30 10:26:59;;;;;;;8.60;3.10;;;11.50;99.90;;;;;;4951550;28;20027;-75
2024/01/30 10:29:25;;;;;;;11.40;3.78;;;11.40;99.90;;;;;;4958280;28;20042;-74
2024/01/30 10:32:04;;;;;;;9.93;2.70;;;11.40;99.90;;;;;;4941191;28;20045;-75
2024/01/30 10:34:30;;;;;;;12.32;3.05;;;11.40;99.90;;;;;;4939176;28;20403;-75
2024/01/30 10:37:12;;;;;;;9.90;3.25;;;11.50;99.90;;;;;;4960136;28;20027;-75
2024/01/30 10:39:39;;;;;;;9.65;3.30;;;11.40;99.90;;;;;;4952608;28;20019;-74
2024/01/30 10:42:05;;;;;;;13.82;3.17;;;11.30;99.90;;;;;;4940756;28;20439;-76
2024/01/30 10:44:41;;;;;;;8.07;3.15;;;11.20;99.90;;;;;;4943122;28;20086;-75
2024/01/30 10:47:12;;;;;;;7.80;3.45;;;11.10;99.90;;;;;;4938103;28;20042;-75
2024/01/30 10:49:39;;;;;;;6.90;2.58;;;11.10;99.90;;;;;;4960354;28;20032;-76
2024/01/30 10:52:05;;;;;;;7.88;2.65;;;11.10;99.90;;;;;;4955227;28;20027;-74
2024/01/30 10:54:33;;;;;;;13.15;2.65;;;11.20;99.90;;;;;;4957306;28;20612;-75
2024/01/30 10:57:01;;;;;;;6.65;2.58;;;11.20;99.90;;;;;;4957325;28;20042;-76
2024/01/30 10:59:28;;;;;;;5.80;2.08;;;11.20;99.90;;;;;;4959738;28;20046;-76
2024/01/30 11:01:54;;;;;;;6.80;1.70;;;11.30;99.90;;;;;;4959950;28;20529;-74
2024/01/30 11:04:20;;;;;;;8.85;2.15;;;11.30;99.90;;;;;;4935624;28;20046;-75
2024/01/30 11:06:48;;;;;;;6.10;2.42;;;11.30;99.90;;;;;;4953311;28;20461;-75
2024/01/30 11:09:17;;;;;;;4.80;1.73;;;11.30;99.90;;;;;;4939796;28;20031;-74
2024/01/30 11:12:02;;;;;;;10.70;1.65;;;11.30;99.90;;;;;;4938010;28;20027;-75
2024/01/30 11:14:30;;;;;;;6.00;0.77;;;11.30;99.90;;;;;;4956848;28;20039;-75
2024/01/30 11:16:59;;;;;;;8.68;1.38;;;11.20;99.90;;;;;;4942971;28;20466;-76
2024/01/30 11:19:26;;;;;;;6.72;0.70;;;11.20;99.90;;;;;;4953981;28;20042;-75
2024/01/30 11:21:56;;;;;;;5.05;1.08;;;11.10;99.90;;;;;;4945018;28;20098;-75
2024/01/30 11:24:23;;;;;;;6.07;1.02;;;11.00;99.90;;;;;;4953133;28;20039;-74
2024/01/30 11:26:59;;;;;;;3.15;0.90;;;11.00;99.90;;;;;;4940147;28;20130;-75
2024/01/30 11:29:26;;;;;;;4.57;0.82;;;11.00;99.90;;;;;;4953715;28;20122;-74
2024/01/30 11:31:56;;;;;;;5.55;0.70;;;10.90;99.90;;;;;;4957624;28;20036;-73
2024/01/30 11:34:23;;;;;;;3.15;1.10;;;10.90;99.90;;;;;;4937884;28;20047;-74
2024/01/30 11:36:54;;;;;;;1.88;0.80;;;11.00;99.90;;;;;;4959154;28;20074;-75
2024/01/30 11:39:21;;;;;;;7.25;1.80;;;11.10;99.90;;;;;;4956836;28;20038;-75
2024/01/30 11:41:50;;;;;;;4.57;1.42;;;11.10;99.90;;;;;;4952505;28;20695;-74
2024/01/30 11:44:16;;;;;;;3.38;1.13;;;11.30;99.90;;;;;;4951247;28;20035;-74
2024/01/30 11:46:41;;;;;;;3.70;1.00;;;11.30;99.90;;;;;;4934324;28;20042;-74
2024/01/30 11:49:07;;;;;;;2.60;0.93;;;11.20;99.90;;;;;;4953723;28;20098;-75
2024/01/30 11:51:33;;;;;;;2.90;1.00;;;11.10;99.90;;;;;;4946304;28;20031;-74
2024/01/30 11:53:58;;;;;;;8.38;1.80;;;11.00;99.90;;;;;;4954305;28;20070;-73
2024/01/30 11:56:25;;;;;;;6.63;1.10;;;11.00;99.90;;;;;;4952110;28;20046;-76
2024/01/30 11:58:52;;;;;;;3.60;0.98;;;10.80;99.90;;;;;;4939931;28;20485;-77
2024/01/30 12:01:17;;;;;;;5.05;0.60;;;10.70;99.90;;;;;;4955013;28;20113;-74
2024/01/30 12:03:50;;;;;;;4.80;0.50;;;10.50;99.90;;;;;;4936217;29;20127;-75
2024/01/30 12:06:16;;;;;;;4.60;0.63;;;10.40;99.90;;;;;;4927883;28;20095;-74
2024/01/30 12:08:42;;;;;;;3.70;1.05;;;10.30;99.90;;;;;;4955616;28;20039;-74
2024/01/30 12:11:07;;;;;;;2.63;0.90;;;10.30;99.90;;;;;;4957403;28;20450;-74
2024/01/30 12:13:33;;;;;;;3.22;1.05;;;10.20;99.90;;;;;;4938124;28;20070;-76
2024/01/30 12:15:59;;;;;;;3.33;0.47;;;10.20;99.90;;;;;;4958905;28;20119;-76
2024/01/30 12:18:25;;;;;;;3.78;0.40;;;10.20;99.90;;;;;;4960036;28;20042;-74
2024/01/30 12:20:59;;;;;;;3.33;0.90;;;10.30;99.90;;;;;;4955822;28;20051;-75
2024/01/30 12:23:25;;;;;;;2.17;0.63;;;10.20;99.90;;;;;;4934556;28;20030;-74
2024/01/30 12:25:52;;;;;;;3.35;0.63;;;10.20;99.90;;;;;;4950895;28;20126;-75
2024/01/30 12:28:17;;;;;;;5.75;1.00;;;10.20;99.90;;;;;;4955160;28;20093;-73
2024/01/30 12:30:43;;;;;;;7.45;0.70;;;10.20;99.90;;;;;;4935311;28;20039;-74
2024/01/30 12:33:09;;;;;;;1.70;0.52;;;10.20;99.90;;;;;;4938973;28;20094;-75
2024/01/30 12:35:35;;;;;;;1.80;0.55;;;10.30;99.90;;;;;;4953429;28;20061;-76
2024/01/30 12:38:02;;;;;;;2.13;0.73;;;10.40;99.90;;;;;;4951080;28;20067;-74
2024/01/30 12:40:28;;;;;;;5.72;0.63;;;10.30;99.90;;;;;;4940177;28;20102;-75
2024/01/30 12:42:54;;;;;;;3.15;0.52;;;10.40;99.90;;;;;;4943156;28;20036;-73
2024/01/30 12:45:22;;;;;;;1.67;0.40;;;10.40;99.90;;;;;;4928474;28;20049;-75
2024/01/30 12:47:48;;;;;;;2.70;0.70;;;10.40;99.90;;;;;;4939881;28;20454;-75